Stonington Eagle — V7OK7 — position and weather

sailwx.info

Track history (hours):
 
Tides and Currents Weather Stations Pressure Air Temp Water Temp Dewpoint Dewpoint Depression Visibility Wind Speed Wind Dir Waves Ship Positions

Stonington Eagle

Last reported at 2018-Jul-17 10:25 UTC. Time now 2018-Jul-17 16:58 UTC.
Position N 35°50' W 012°42'.

Length 200 m; draft 11.8 m.

Type: Cargo ship. MMSI: 538007450.

Date/timePositionNaut miles runAvg speedWind from/ knotsBaromVisibWave heightAir tempDewpointWater temp
2018-Jul-17 10:25N 35°50' W 012°42'1712.2
2018-Jul-17 09:03N 35°34' W 012°48'612.2
2018-Jul-17 08:34N 35°29' W 012°51'212.1
2018-Jul-17 08:25N 35°27' W 012°51'512.5
2018-Jul-17 08:00N 35°22' W 012°53'612.3
2018-Jul-17 07:29N 35°16' W 012°56'611.9
2018-Jul-17 07:00N 35°10' W 012°57'37312.4
2018-Jul-16 00:56N 29°18' W 015°23'812.5
2018-Jul-16 00:15N 29°10' W 015°26'312.5
2018-Jul-15 23:59N 29°07' W 015°28'612.3
2018-Jul-15 23:30N 29°01' W 015°30'612.2
2018-Jul-15 22:59N 28°55' W 015°32'612.1
2018-Jul-15 22:30N 28°50' W 015°34'612.1
2018-Jul-15 22:00N 28°44' W 015°37'612.3
2018-Jul-15 21:30N 28°38' W 015°39'612.2
2018-Jul-15 21:00N 28°33' W 015°42'612.2
2018-Jul-15 20:30N 28°28' W 015°47'612.1
2018-Jul-15 20:00N 28°23' W 015°51'611.7
2018-Jul-15 19:30N 28°19' W 015°55'611.3
2018-Jul-15 18:56N 28°14' W 016°00'511.1
2018-Jul-15 18:27N 28°10' W 016°04'711.0
2018-Jul-15 17:52N 28°05' W 016°09'411.1
2018-Jul-15 17:28N 28°01' W 016°12'1011.2
2018-Jul-15 16:36N 27°52' W 016°16'111.6
2018-Jul-15 16:29N 27°51' W 016°16'611.7
2018-Jul-15 16:00N 27°45' W 016°18'2612.1
2018-Jul-15 13:53N 27°20' W 016°24'  
Track history (hours):
 
Tides and Currents Weather Stations Pressure Air Temp Water Temp Dewpoint Dewpoint Depression Visibility Wind Speed Wind Dir Waves Ship Positions

Stonington Eagle

Last reported at 2018-Jul-17 10:25 UTC. Time now 2018-Jul-17 16:58 UTC.
Position N 35°50' W 012°42'.

Length 200 m; draft 11.8 m.

Type: Cargo ship. MMSI: 538007450.

Date/timePositionNaut miles runAvg speedWind from/ knotsBaromVisibWave heightAir tempDewpointWater temp
2018-Jul-17 10:25N 35°50' W 012°42'1712.2
2018-Jul-17 09:03N 35°34' W 012°48'612.2
2018-Jul-17 08:34N 35°29' W 012°51'212.1
2018-Jul-17 08:25N 35°27' W 012°51'512.5
2018-Jul-17 08:00N 35°22' W 012°53'612.3
2018-Jul-17 07:29N 35°16' W 012°56'611.9
2018-Jul-17 07:00N 35°10' W 012°57'37312.4
2018-Jul-16 00:56N 29°18' W 015°23'812.5
2018-Jul-16 00:15N 29°10' W 015°26'312.5
2018-Jul-15 23:59N 29°07' W 015°28'612.3
2018-Jul-15 23:30N 29°01' W 015°30'612.2
2018-Jul-15 22:59N 28°55' W 015°32'612.1
2018-Jul-15 22:30N 28°50' W 015°34'612.1
2018-Jul-15 22:00N 28°44' W 015°37'612.3
2018-Jul-15 21:30N 28°38' W 015°39'612.2
2018-Jul-15 21:00N 28°33' W 015°42'612.2
2018-Jul-15 20:30N 28°28' W 015°47'612.1
2018-Jul-15 20:00N 28°23' W 015°51'611.7
2018-Jul-15 19:30N 28°19' W 015°55'611.3
2018-Jul-15 18:56N 28°14' W 016°00'511.1
2018-Jul-15 18:27N 28°10' W 016°04'711.0
2018-Jul-15 17:52N 28°05' W 016°09'411.1
2018-Jul-15 17:28N 28°01' W 016°12'1011.2
2018-Jul-15 16:36N 27°52' W 016°16'111.6
2018-Jul-15 16:29N 27°51' W 016°16'611.7
2018-Jul-15 16:00N 27°45' W 016°18'2612.1
2018-Jul-15 13:53N 27°20' W 016°24'  

Dump ship's entire track history